sensor_id;sensor_type;location;lat;lon;timestamp;P1;durP1;ratioP1;P2;durP2;ratioP2
85875;SDS011;76392;0.000;0.000;2024-03-02T00:02:12;5.40;;;1.80;;
85875;SDS011;76392;0.000;0.000;2024-03-02T00:04:37;4.78;;;1.70;;
85875;SDS011;76392;0.000;0.000;2024-03-02T00:07:03;4.35;;;1.48;;
85875;SDS011;76392;0.000;0.000;2024-03-02T00:09:29;5.45;;;1.95;;
85875;SDS011;76392;0.000;0.000;2024-03-02T00:11:54;5.90;;;1.60;;
85875;SDS011;76392;0.000;0.000;2024-03-02T00:14:20;5.10;;;1.65;;
85875;SDS011;76392;0.000;0.000;2024-03-02T00:16:46;5.03;;;2.95;;
85875;SDS011;76392;0.000;0.000;2024-03-02T00:19:11;4.75;;;1.48;;
85875;SDS011;76392;0.000;0.000;2024-03-02T00:21:37;5.22;;;1.73;;
85875;SDS011;76392;0.000;0.000;2024-03-02T00:24:48;5.82;;;1.70;;
85875;SDS011;76392;0.000;0.000;2024-03-02T00:26:59;5.18;;;2.15;;
85875;SDS011;76392;0.000;0.000;2024-03-02T00:29:25;5.93;;;1.75;;
85875;SDS011;76392;0.000;0.000;2024-03-02T00:31:50;5.13;;;1.80;;
85875;SDS011;76392;0.000;0.000;2024-03-02T00:34:16;5.28;;;1.55;;
85875;SDS011;76392;0.000;0.000;2024-03-02T00:36:42;5.35;;;1.83;;
85875;SDS011;76392;0.000;0.000;2024-03-02T00:39:08;5.05;;;1.45;;
85875;SDS011;76392;0.000;0.000;2024-03-02T00:41:34;5.38;;;1.65;;
85875;SDS011;76392;0.000;0.000;2024-03-02T00:44:02;5.53;;;2.33;;
85875;SDS011;76392;0.000;0.000;2024-03-02T00:46:41;5.32;;;1.83;;
85875;SDS011;76392;0.000;0.000;2024-03-02T00:49:29;4.60;;;1.67;;
85875;SDS011;76392;0.000;0.000;2024-03-02T00:51:54;5.40;;;1.73;;
85875;SDS011;76392;0.000;0.000;2024-03-02T00:54:24;5.85;;;1.42;;
85875;SDS011;76392;0.000;0.000;2024-03-02T00:56:51;5.28;;;2.90;;
85875;SDS011;76392;0.000;0.000;2024-03-02T00:59:17;5.43;;;2.00;;
85875;SDS011;76392;0.000;0.000;2024-03-02T01:01:43;4.65;;;1.58;;
85875;SDS011;76392;0.000;0.000;2024-03-02T01:04:09;4.93;;;2.00;;
85875;SDS011;76392;0.000;0.000;2024-03-02T01:06:37;6.28;;;1.83;;
85875;SDS011;76392;0.000;0.000;2024-03-02T01:09:03;7.32;;;2.08;;
85875;SDS011;76392;0.000;0.000;2024-03-02T01:11:29;6.15;;;2.08;;
85875;SDS011;76392;0.000;0.000;2024-03-02T01:13:55;5.10;;;1.75;;
85875;SDS011;76392;0.000;0.000;2024-03-02T01:16:20;6.70;;;1.92;;
85875;SDS011;76392;0.000;0.000;2024-03-02T01:18:46;5.75;;;3.08;;
85875;SDS011;76392;0.000;0.000;2024-03-02T01:21:11;5.28;;;1.70;;
85875;SDS011;76392;0.000;0.000;2024-03-02T01:23:37;5.25;;;1.95;;
85875;SDS011;76392;0.000;0.000;2024-03-02T01:26:03;5.03;;;1.50;;
85875;SDS011;76392;0.000;0.000;2024-03-02T01:28:28;4.95;;;1.75;;
85875;SDS011;76392;0.000;0.000;2024-03-02T01:30:54;5.47;;;2.53;;
85875;SDS011;76392;0.000;0.000;2024-03-02T01:33:19;4.15;;;1.50;;
85875;SDS011;76392;0.000;0.000;2024-03-02T01:35:46;7.10;;;1.90;;
85875;SDS011;76392;0.000;0.000;2024-03-02T01:38:12;5.28;;;1.63;;
85875;SDS011;76392;0.000;0.000;2024-03-02T01:40:38;4.40;;;1.35;;
85875;SDS011;76392;0.000;0.000;2024-03-02T01:43:04;5.05;;;1.67;;
85875;SDS011;76392;0.000;0.000;2024-03-02T01:45:30;3.90;;;1.40;;
85875;SDS011;76392;0.000;0.000;2024-03-02T01:47:56;5.78;;;1.63;;
85875;SDS011;76392;0.000;0.000;2024-03-02T01:50:25;4.47;;;1.83;;
85875;SDS011;76392;0.000;0.000;2024-03-02T01:52:51;4.35;;;1.20;;
85875;SDS011;76392;0.000;0.000;2024-03-02T01:55:17;4.53;;;1.60;;
85875;SDS011;76392;0.000;0.000;2024-03-02T01:57:42;4.25;;;1.92;;
85875;SDS011;76392;0.000;0.000;2024-03-02T02:00:10;4.70;;;1.65;;
85875;SDS011;76392;0.000;0.000;2024-03-02T02:02:36;5.05;;;1.88;;
85875;SDS011;76392;0.000;0.000;2024-03-02T02:05:02;4.18;;;1.92;;
85875;SDS011;76392;0.000;0.000;2024-03-02T02:07:27;5.55;;;1.75;;
85875;SDS011;76392;0.000;0.000;2024-03-02T02:09:53;4.85;;;1.83;;
85875;SDS011;76392;0.000;0.000;2024-03-02T02:12:18;4.53;;;1.83;;
85875;SDS011;76392;0.000;0.000;2024-03-02T02:14:47;4.72;;;1.60;;
85875;SDS011;76392;0.000;0.000;2024-03-02T02:17:14;4.57;;;1.88;;
85875;SDS011;76392;0.000;0.000;2024-03-02T02:19:43;4.57;;;1.70;;
85875;SDS011;76392;0.000;0.000;2024-03-02T02:22:09;5.35;;;1.83;;
85875;SDS011;76392;0.000;0.000;2024-03-02T02:24:35;4.05;;;1.67;;
85875;SDS011;76392;0.000;0.000;2024-03-02T02:27:00;5.80;;;1.77;;
85875;SDS011;76392;0.000;0.000;2024-03-02T02:29:26;4.80;;;1.80;;
85875;SDS011;76392;0.000;0.000;2024-03-02T02:31:52;5.85;;;1.85;;
85875;SDS011;76392;0.000;0.000;2024-03-02T02:34:17;4.72;;;1.75;;
85875;SDS011;76392;0.000;0.000;2024-03-02T02:36:43;5.78;;;2.25;;
85875;SDS011;76392;0.000;0.000;2024-03-02T02:39:10;3.60;;;1.85;;
85875;SDS011;76392;0.000;0.000;2024-03-02T02:41:37;3.92;;;1.58;;
85875;SDS011;76392;0.000;0.000;2024-03-02T02:44:03;6.13;;;1.48;;
85875;SDS011;76392;0.000;0.000;2024-03-02T02:46:29;5.32;;;1.45;;
85875;SDS011;76392;0.000;0.000;2024-03-02T02:48:55;4.30;;;1.50;;
85875;SDS011;76392;0.000;0.000;2024-03-02T02:51:20;3.97;;;1.50;;
85875;SDS011;76392;0.000;0.000;2024-03-02T02:53:46;4.03;;;1.20;;
85875;SDS011;76392;0.000;0.000;2024-03-02T02:56:11;5.53;;;1.85;;
85875;SDS011;76392;0.000;0.000;2024-03-02T02:58:37;4.45;;;1.52;;
85875;SDS011;76392;0.000;0.000;2024-03-02T03:01:03;4.95;;;1.85;;
85875;SDS011;76392;0.000;0.000;2024-03-02T03:03:29;4.28;;;1.25;;
85875;SDS011;76392;0.000;0.000;2024-03-02T03:05:54;4.53;;;1.92;;
85875;SDS011;76392;0.000;0.000;2024-03-02T03:08:20;6.15;;;1.17;;
85875;SDS011;76392;0.000;0.000;2024-03-02T03:10:45;4.35;;;1.40;;
85875;SDS011;76392;0.000;0.000;2024-03-02T03:13:11;4.68;;;1.50;;
85875;SDS011;76392;0.000;0.000;2024-03-02T03:15:36;4.70;;;1.50;;
85875;SDS011;76392;0.000;0.000;2024-03-02T03:18:05;3.65;;;1.52;;
85875;SDS011;76392;0.000;0.000;2024-03-02T03:20:31;4.40;;;2.00;;
85875;SDS011;76392;0.000;0.000;2024-03-02T03:22:57;4.50;;;1.27;;
85875;SDS011;76392;0.000;0.000;2024-03-02T03:25:23;4.72;;;1.70;;
85875;SDS011;76392;0.000;0.000;2024-03-02T03:27:48;5.07;;;1.40;;
85875;SDS011;76392;0.000;0.000;2024-03-02T03:30:14;4.63;;;1.10;;
85875;SDS011;76392;0.000;0.000;2024-03-02T03:32:39;4.97;;;1.63;;
85875;SDS011;76392;0.000;0.000;2024-03-02T03:35:05;3.78;;;1.33;;
85875;SDS011;76392;0.000;0.000;2024-03-02T03:37:31;5.15;;;1.83;;
85875;SDS011;76392;0.000;0.000;2024-03-02T03:40:01;4.22;;;1.45;;
85875;SDS011;76392;0.000;0.000;2024-03-02T03:42:28;4.47;;;1.50;;
85875;SDS011;76392;0.000;0.000;2024-03-02T03:44:53;4.38;;;1.30;;
85875;SDS011;76392;0.000;0.000;2024-03-02T03:47:19;3.65;;;1.02;;
85875;SDS011;76392;0.000;0.000;2024-03-02T03:49:45;4.50;;;1.40;;
85875;SDS011;76392;0.000;0.000;2024-03-02T03:52:11;3.90;;;1.10;;
85875;SDS011;76392;0.000;0.000;2024-03-02T03:54:36;5.05;;;1.55;;
85875;SDS011;76392;0.000;0.000;2024-03-02T03:57:03;4.47;;;1.65;;
85875;SDS011;76392;0.000;0.000;2024-03-02T03:59:29;4.97;;;1.65;;
85875;SDS011;76392;0.000;0.000;2024-03-02T04:01:54;3.80;;;1.63;;
85875;SDS011;76392;0.000;0.000;2024-03-02T04:04:20;4.03;;;1.15;;
85875;SDS011;76392;0.000;0.000;2024-03-02T04:06:45;4.03;;;1.58;;
85875;SDS011;76392;0.000;0.000;2024-03-02T04:09:11;4.30;;;1.52;;
85875;SDS011;76392;0.000;0.000;2024-03-02T04:11:37;4.95;;;1.20;;
85875;SDS011;76392;0.000;0.000;2024-03-02T04:14:02;3.65;;;1.38;;
85875;SDS011;76392;0.000;0.000;2024-03-02T04:16:28;3.33;;;0.90;;
85875;SDS011;76392;0.000;0.000;2024-03-02T04:18:54;3.35;;;0.95;;
85875;SDS011;76392;0.000;0.000;2024-03-02T04:21:19;3.97;;;1.30;;
85875;SDS011;76392;0.000;0.000;2024-03-02T04:23:45;4.80;;;1.27;;
85875;SDS011;76392;0.000;0.000;2024-03-02T04:26:11;3.45;;;1.98;;
85875;SDS011;76392;0.000;0.000;2024-03-02T04:28:36;4.00;;;1.20;;
85875;SDS011;76392;0.000;0.000;2024-03-02T04:31:02;4.13;;;1.35;;
85875;SDS011;76392;0.000;0.000;2024-03-02T04:33:27;3.55;;;1.35;;
85875;SDS011;76392;0.000;0.000;2024-03-02T04:35:53;3.72;;;1.20;;
85875;SDS011;76392;0.000;0.000;2024-03-02T04:38:18;4.57;;;1.30;;
85875;SDS011;76392;0.000;0.000;2024-03-02T04:40:44;4.45;;;1.23;;
85875;SDS011;76392;0.000;0.000;2024-03-02T04:43:09;3.80;;;1.23;;
85875;SDS011;76392;0.000;0.000;2024-03-02T04:45:37;3.83;;;1.23;;
85875;SDS011;76392;0.000;0.000;2024-03-02T04:48:03;4.18;;;1.83;;
85875;SDS011;76392;0.000;0.000;2024-03-02T04:50:29;4.88;;;1.15;;
85875;SDS011;76392;0.000;0.000;2024-03-02T04:52:55;3.90;;;1.45;;
85875;SDS011;76392;0.000;0.000;2024-03-02T04:55:20;4.32;;;1.10;;
85875;SDS011;76392;0.000;0.000;2024-03-02T04:58:14;4.35;;;1.13;;
85875;SDS011;76392;0.000;0.000;2024-03-02T05:00:40;4.03;;;1.90;;
85875;SDS011;76392;0.000;0.000;2024-03-02T05:03:07;4.00;;;1.40;;
85875;SDS011;76392;0.000;0.000;2024-03-02T05:05:33;3.92;;;1.88;;
85875;SDS011;76392;0.000;0.000;2024-03-02T05:07:59;4.38;;;1.20;;
85875;SDS011;76392;0.000;0.000;2024-03-02T05:10:25;3.35;;;1.65;;
85875;SDS011;76392;0.000;0.000;2024-03-02T05:12:50;4.40;;;1.30;;
85875;SDS011;76392;0.000;0.000;2024-03-02T05:15:22;4.45;;;1.30;;
85875;SDS011;76392;0.000;0.000;2024-03-02T05:17:47;4.40;;;1.30;;
85875;SDS011;76392;0.000;0.000;2024-03-02T05:20:13;3.35;;;1.10;;
85875;SDS011;76392;0.000;0.000;2024-03-02T05:22:38;3.10;;;0.93;;
85875;SDS011;76392;0.000;0.000;2024-03-02T05:27:32;4.15;;;1.23;;
85875;SDS011;76392;0.000;0.000;2024-03-02T05:29:58;3.13;;;1.10;;
85875;SDS011;76392;0.000;0.000;2024-03-02T05:32:24;4.10;;;2.15;;
85875;SDS011;76392;0.000;0.000;2024-03-02T05:34:49;3.78;;;1.50;;
85875;SDS011;76392;0.000;0.000;2024-03-02T05:37:16;3.80;;;1.25;;
85875;SDS011;76392;0.000;0.000;2024-03-02T05:39:42;3.85;;;1.02;;
85875;SDS011;76392;0.000;0.000;2024-03-02T05:42:08;5.20;;;1.25;;
85875;SDS011;76392;0.000;0.000;2024-03-02T05:44:34;4.18;;;1.58;;
85875;SDS011;76392;0.000;0.000;2024-03-02T05:47:01;3.40;;;1.00;;
85875;SDS011;76392;0.000;0.000;2024-03-02T05:49:28;3.42;;;1.10;;
85875;SDS011;76392;0.000;0.000;2024-03-02T05:51:53;4.63;;;1.30;;
85875;SDS011;76392;0.000;0.000;2024-03-02T05:54:19;3.83;;;1.25;;
85875;SDS011;76392;0.000;0.000;2024-03-02T05:56:44;3.22;;;0.98;;
85875;SDS011;76392;0.000;0.000;2024-03-02T05:59:10;3.45;;;1.35;;
85875;SDS011;76392;0.000;0.000;2024-03-02T06:01:38;4.05;;;1.23;;
85875;SDS011;76392;0.000;0.000;2024-03-02T06:04:04;3.95;;;0.93;;
85875;SDS011;76392;0.000;0.000;2024-03-02T06:06:30;3.33;;;1.25;;
85875;SDS011;76392;0.000;0.000;2024-03-02T06:08:57;4.25;;;0.73;;
85875;SDS011;76392;0.000;0.000;2024-03-02T06:11:23;4.75;;;1.23;;
85875;SDS011;76392;0.000;0.000;2024-03-02T06:13:49;3.58;;;1.00;;
85875;SDS011;76392;0.000;0.000;2024-03-02T06:16:15;3.35;;;1.10;;
85875;SDS011;76392;0.000;0.000;2024-03-02T06:18:40;4.40;;;1.23;;
85875;SDS011;76392;0.000;0.000;2024-03-02T06:21:06;3.60;;;1.42;;
85875;SDS011;76392;0.000;0.000;2024-03-02T06:23:31;3.72;;;1.00;;
85875;SDS011;76392;0.000;0.000;2024-03-02T06:25:57;4.15;;;1.30;;
85875;SDS011;76392;0.000;0.000;2024-03-02T06:28:23;3.78;;;1.13;;
85875;SDS011;76392;0.000;0.000;2024-03-02T06:30:48;3.67;;;0.73;;
85875;SDS011;76392;0.000;0.000;2024-03-02T06:33:14;3.65;;;1.00;;
85875;SDS011;76392;0.000;0.000;2024-03-02T06:35:39;4.53;;;1.35;;
85875;SDS011;76392;0.000;0.000;2024-03-02T06:38:06;4.22;;;1.60;;
85875;SDS011;76392;0.000;0.000;2024-03-02T06:40:31;4.78;;;1.45;;
85875;SDS011;76392;0.000;0.000;2024-03-02T06:42:57;3.25;;;0.82;;
85875;SDS011;76392;0.000;0.000;2024-03-02T06:45:22;4.85;;;0.98;;
85875;SDS011;76392;0.000;0.000;2024-03-02T06:47:48;4.03;;;1.25;;
85875;SDS011;76392;0.000;0.000;2024-03-02T06:50:16;3.45;;;1.17;;
85875;SDS011;76392;0.000;0.000;2024-03-02T06:52:42;3.53;;;1.10;;
85875;SDS011;76392;0.000;0.000;2024-03-02T06:55:08;3.95;;;1.23;;
85875;SDS011;76392;0.000;0.000;2024-03-02T06:57:34;4.10;;;1.13;;
85875;SDS011;76392;0.000;0.000;2024-03-02T06:59:59;5.43;;;1.98;;
85875;SDS011;76392;0.000;0.000;2024-03-02T07:02:25;3.70;;;0.80;;
85875;SDS011;76392;0.000;0.000;2024-03-02T07:04:54;4.47;;;1.10;;
85875;SDS011;76392;0.000;0.000;2024-03-02T07:07:19;3.72;;;1.25;;
85875;SDS011;76392;0.000;0.000;2024-03-02T07:09:45;2.97;;;1.15;;
85875;SDS011;76392;0.000;0.000;2024-03-02T07:12:11;3.30;;;1.00;;
85875;SDS011;76392;0.000;0.000;2024-03-02T07:14:37;3.92;;;1.10;;
85875;SDS011;76392;0.000;0.000;2024-03-02T07:17:36;2.97;;;0.98;;
85875;SDS011;76392;0.000;0.000;2024-03-02T07:20:02;4.25;;;0.98;;
85875;SDS011;76392;0.000;0.000;2024-03-02T07:22:29;2.83;;;0.90;;
85875;SDS011;76392;0.000;0.000;2024-03-02T07:24:54;4.28;;;1.10;;
85875;SDS011;76392;0.000;0.000;2024-03-02T07:27:20;4.45;;;1.48;;
85875;SDS011;76392;0.000;0.000;2024-03-02T07:29:46;3.17;;;0.80;;
85875;SDS011;76392;0.000;0.000;2024-03-02T07:32:11;3.63;;;1.75;;
85875;SDS011;76392;0.000;0.000;2024-03-02T07:34:37;3.42;;;1.42;;
85875;SDS011;76392;0.000;0.000;2024-03-02T07:37:02;5.00;;;1.70;;
85875;SDS011;76392;0.000;0.000;2024-03-02T07:39:28;4.47;;;1.50;;
85875;SDS011;76392;0.000;0.000;2024-03-02T07:41:54;4.10;;;1.20;;
85875;SDS011;76392;0.000;0.000;2024-03-02T07:44:20;4.03;;;1.33;;
85875;SDS011;76392;0.000;0.000;2024-03-02T07:46:46;4.43;;;1.52;;
85875;SDS011;76392;0.000;0.000;2024-03-02T07:49:12;4.50;;;1.60;;
85875;SDS011;76392;0.000;0.000;2024-03-02T07:51:41;3.33;;;1.05;;
85875;SDS011;76392;0.000;0.000;2024-03-02T07:54:07;3.13;;;0.93;;
85875;SDS011;76392;0.000;0.000;2024-03-02T07:56:33;4.75;;;1.35;;
85875;SDS011;76392;0.000;0.000;2024-03-02T07:58:59;3.97;;;1.13;;
85875;SDS011;76392;0.000;0.000;2024-03-02T08:01:27;3.90;;;0.98;;
85875;SDS011;76392;0.000;0.000;2024-03-02T08:06:20;3.28;;;1.00;;
85875;SDS011;76392;0.000;0.000;2024-03-02T08:08:47;3.45;;;1.10;;
85875;SDS011;76392;0.000;0.000;2024-03-02T08:11:12;3.58;;;0.98;;
85875;SDS011;76392;0.000;0.000;2024-03-02T08:13:39;3.70;;;1.27;;
85875;SDS011;76392;0.000;0.000;2024-03-02T08:16:05;3.75;;;1.15;;
85875;SDS011;76392;0.000;0.000;2024-03-02T08:18:32;3.78;;;1.00;;
85875;SDS011;76392;0.000;0.000;2024-03-02T08:20:58;3.28;;;1.02;;
85875;SDS011;76392;0.000;0.000;2024-03-02T08:23:24;3.22;;;0.80;;
85875;SDS011;76392;0.000;0.000;2024-03-02T08:25:49;2.08;;;0.68;;
85875;SDS011;76392;0.000;0.000;2024-03-02T08:28:15;3.25;;;1.02;;
85875;SDS011;76392;0.000;0.000;2024-03-02T08:30:41;4.13;;;1.00;;
85875;SDS011;76392;0.000;0.000;2024-03-02T08:33:06;3.17;;;0.90;;
85875;SDS011;76392;0.000;0.000;2024-03-02T08:35:32;3.47;;;0.80;;
85875;SDS011;76392;0.000;0.000;2024-03-02T08:38:04;5.10;;;0.77;;
85875;SDS011;76392;0.000;0.000;2024-03-02T08:40:30;3.33;;;1.10;;
85875;SDS011;76392;0.000;0.000;2024-03-02T08:42:55;3.88;;;1.02;;
85875;SDS011;76392;0.000;0.000;2024-03-02T08:45:21;3.22;;;0.77;;
85875;SDS011;76392;0.000;0.000;2024-03-02T08:47:46;3.92;;;1.02;;
85875;SDS011;76392;0.000;0.000;2024-03-02T08:50:12;2.05;;;0.60;;
85875;SDS011;76392;0.000;0.000;2024-03-02T08:52:38;3.85;;;0.93;;
85875;SDS011;76392;0.000;0.000;2024-03-02T08:55:04;3.55;;;1.17;;
85875;SDS011;76392;0.000;0.000;2024-03-02T08:57:30;2.50;;;0.55;;
85875;SDS011;76392;0.000;0.000;2024-03-02T08:59:56;3.33;;;0.88;;
85875;SDS011;76392;0.000;0.000;2024-03-02T09:02:21;4.38;;;1.20;;
85875;SDS011;76392;0.000;0.000;2024-03-02T09:04:47;2.60;;;0.85;;
85875;SDS011;76392;0.000;0.000;2024-03-02T09:07:12;5.15;;;0.50;;
85875;SDS011;76392;0.000;0.000;2024-03-02T09:09:38;4.70;;;0.93;;
85875;SDS011;76392;0.000;0.000;2024-03-02T09:12:04;3.30;;;0.70;;
85875;SDS011;76392;0.000;0.000;2024-03-02T09:14:31;3.22;;;0.90;;
85875;SDS011;76392;0.000;0.000;2024-03-02T09:16:56;4.07;;;0.55;;
85875;SDS011;76392;0.000;0.000;2024-03-02T09:19:22;3.28;;;0.73;;
85875;SDS011;76392;0.000;0.000;2024-03-02T09:21:47;2.75;;;0.80;;
85875;SDS011;76392;0.000;0.000;2024-03-02T09:24:13;3.80;;;0.63;;
85875;SDS011;76392;0.000;0.000;2024-03-02T09:26:38;3.38;;;0.60;;
85875;SDS011;76392;0.000;0.000;2024-03-02T09:29:04;2.42;;;0.90;;
85875;SDS011;76392;0.000;0.000;2024-03-02T09:31:29;2.60;;;0.68;;
85875;SDS011;76392;0.000;0.000;2024-03-02T09:33:55;3.20;;;0.73;;
85875;SDS011;76392;0.000;0.000;2024-03-02T09:36:21;4.40;;;0.70;;
85875;SDS011;76392;0.000;0.000;2024-03-02T09:38:47;3.58;;;0.90;;
85875;SDS011;76392;0.000;0.000;2024-03-02T09:41:13;3.40;;;0.90;;
85875;SDS011;76392;0.000;0.000;2024-03-02T09:43:39;2.83;;;0.60;;
85875;SDS011;76392;0.000;0.000;2024-03-02T09:46:05;3.15;;;0.60;;
85875;SDS011;76392;0.000;0.000;2024-03-02T09:48:33;3.17;;;0.80;;
85875;SDS011;76392;0.000;0.000;2024-03-02T09:50:58;2.92;;;0.57;;
85875;SDS011;76392;0.000;0.000;2024-03-02T09:53:24;3.50;;;0.77;;
85875;SDS011;76392;0.000;0.000;2024-03-02T09:55:50;3.00;;;0.50;;
85875;SDS011;76392;0.000;0.000;2024-03-02T09:58:16;2.63;;;0.47;;
85875;SDS011;76392;0.000;0.000;2024-03-02T10:00:41;1.95;;;0.60;;
85875;SDS011;76392;0.000;0.000;2024-03-02T10:03:11;2.00;;;0.43;;
85875;SDS011;76392;0.000;0.000;2024-03-02T10:05:37;2.85;;;0.52;;
85875;SDS011;76392;0.000;0.000;2024-03-02T10:08:03;3.60;;;0.77;;
85875;SDS011;76392;0.000;0.000;2024-03-02T10:10:38;3.33;;;0.60;;
85875;SDS011;76392;0.000;0.000;2024-03-02T10:13:08;3.70;;;0.63;;
85875;SDS011;76392;0.000;0.000;2024-03-02T10:15:38;2.28;;;0.40;;
85875;SDS011;76392;0.000;0.000;2024-03-02T10:18:09;4.10;;;0.57;;
85875;SDS011;76392;0.000;0.000;2024-03-02T10:20:37;2.50;;;0.40;;
85875;SDS011;76392;0.000;0.000;2024-03-02T10:23:10;2.90;;;0.73;;
85875;SDS011;76392;0.000;0.000;2024-03-02T10:25:39;3.03;;;0.60;;
85875;SDS011;76392;0.000;0.000;2024-03-02T10:28:05;2.97;;;0.60;;
85875;SDS011;76392;0.000;0.000;2024-03-02T10:30:31;4.70;;;1.65;;
85875;SDS011;76392;0.000;0.000;2024-03-02T10:33:03;2.67;;;0.40;;
85875;SDS011;76392;0.000;0.000;2024-03-02T10:35:29;2.35;;;0.38;;
85875;SDS011;76392;0.000;0.000;2024-03-02T10:37:58;4.30;;;1.23;;
85875;SDS011;76392;0.000;0.000;2024-03-02T10:40:24;2.92;;;0.38;;
85875;SDS011;76392;0.000;0.000;2024-03-02T10:42:50;3.60;;;1.27;;
85875;SDS011;76392;0.000;0.000;2024-03-02T10:45:18;4.07;;;0.73;;
85875;SDS011;76392;0.000;0.000;2024-03-02T10:47:45;2.78;;;0.40;;
85875;SDS011;76392;0.000;0.000;2024-03-02T10:50:12;3.20;;;0.60;;
85875;SDS011;76392;0.000;0.000;2024-03-02T10:52:38;3.67;;;0.80;;
85875;SDS011;76392;0.000;0.000;2024-03-02T10:55:07;3.30;;;0.50;;
85875;SDS011;76392;0.000;0.000;2024-03-02T11:00:07;2.35;;;0.40;;
85875;SDS011;76392;0.000;0.000;2024-03-02T11:02:43;1.73;;;0.40;;
85875;SDS011;76392;0.000;0.000;2024-03-02T11:05:13;2.88;;;0.73;;
85875;SDS011;76392;0.000;0.000;2024-03-02T11:07:46;2.25;;;0.43;;
85875;SDS011;76392;0.000;0.000;2024-03-02T11:10:11;4.13;;;0.68;;
85875;SDS011;76392;0.000;0.000;2024-03-02T11:12:46;3.35;;;0.57;;
85875;SDS011;76392;0.000;0.000;2024-03-02T11:15:17;4.97;;;0.55;;
85875;SDS011;76392;0.000;0.000;2024-03-02T11:17:44;2.78;;;0.60;;
85875;SDS011;76392;0.000;0.000;2024-03-02T11:20:11;4.00;;;0.60;;
85875;SDS011;76392;0.000;0.000;2024-03-02T11:22:37;2.42;;;0.40;;
85875;SDS011;76392;0.000;0.000;2024-03-02T11:25:03;2.63;;;0.40;;
85875;SDS011;76392;0.000;0.000;2024-03-02T11:30:48;2.72;;;0.52;;
85875;SDS011;76392;0.000;0.000;2024-03-02T11:33:03;3.00;;;0.70;;
85875;SDS011;76392;0.000;0.000;2024-03-02T11:35:41;2.55;;;0.47;;
85875;SDS011;76392;0.000;0.000;2024-03-02T11:38:10;2.30;;;0.57;;
85875;SDS011;76392;0.000;0.000;2024-03-02T11:40:36;2.60;;;0.55;;
85875;SDS011;76392;0.000;0.000;2024-03-02T11:43:06;1.75;;;0.60;;
85875;SDS011;76392;0.000;0.000;2024-03-02T11:45:33;2.08;;;0.40;;
85875;SDS011;76392;0.000;0.000;2024-03-02T11:47:59;2.92;;;0.50;;
85875;SDS011;76392;0.000;0.000;2024-03-02T11:50:28;2.00;;;0.50;;
85875;SDS011;76392;0.000;0.000;2024-03-02T11:53:03;3.45;;;0.63;;
85875;SDS011;76392;0.000;0.000;2024-03-02T11:55:36;2.90;;;0.50;;
85875;SDS011;76392;0.000;0.000;2024-03-02T11:58:05;1.92;;;0.35;;
85875;SDS011;76392;0.000;0.000;2024-03-02T12:00:31;3.65;;;1.15;;
85875;SDS011;76392;0.000;0.000;2024-03-02T12:03:07;3.15;;;0.73;;
85875;SDS011;76392;0.000;0.000;2024-03-02T12:05:34;1.83;;;0.40;;
85875;SDS011;76392;0.000;0.000;2024-03-02T12:08:01;2.10;;;0.45;;
85875;SDS011;76392;0.000;0.000;2024-03-02T12:10:29;2.88;;;0.30;;
85875;SDS011;76392;0.000;0.000;2024-03-02T12:12:59;4.03;;;0.60;;
85875;SDS011;76392;0.000;0.000;2024-03-02T12:15:29;2.80;;;0.40;;
85875;SDS011;76392;0.000;0.000;2024-03-02T12:17:56;3.28;;;0.50;;
85875;SDS011;76392;0.000;0.000;2024-03-02T12:20:26;2.58;;;0.90;;
85875;SDS011;76392;0.000;0.000;2024-03-02T12:22:54;2.40;;;0.68;;
85875;SDS011;76392;0.000;0.000;2024-03-02T12:25:20;3.95;;;0.70;;
85875;SDS011;76392;0.000;0.000;2024-03-02T12:27:50;3.50;;;0.52;;
85875;SDS011;76392;0.000;0.000;2024-03-02T12:30:17;4.68;;;0.40;;
85875;SDS011;76392;0.000;0.000;2024-03-02T12:32:46;3.92;;;0.60;;
85875;SDS011;76392;0.000;0.000;2024-03-02T12:35:13;3.78;;;0.85;;
85875;SDS011;76392;0.000;0.000;2024-03-02T12:37:45;2.05;;;0.90;;
85875;SDS011;76392;0.000;0.000;2024-03-02T12:40:15;3.67;;;0.50;;
85875;SDS011;76392;0.000;0.000;2024-03-02T12:42:43;3.33;;;1.10;;
85875;SDS011;76392;0.000;0.000;2024-03-02T12:45:12;4.32;;;1.23;;
85875;SDS011;76392;0.000;0.000;2024-03-02T12:47:42;3.92;;;0.70;;
85875;SDS011;76392;0.000;0.000;2024-03-02T12:50:08;4.78;;;0.80;;
85875;SDS011;76392;0.000;0.000;2024-03-02T12:52:34;2.05;;;0.38;;
85875;SDS011;76392;0.000;0.000;2024-03-02T12:55:01;3.53;;;0.52;;
85875;SDS011;76392;0.000;0.000;2024-03-02T12:57:29;4.22;;;0.85;;
85875;SDS011;76392;0.000;0.000;2024-03-02T12:59:59;4.18;;;0.45;;
85875;SDS011;76392;0.000;0.000;2024-03-02T13:02:28;2.63;;;0.85;;
85875;SDS011;76392;0.000;0.000;2024-03-02T13:04:54;3.40;;;0.50;;
85875;SDS011;76392;0.000;0.000;2024-03-02T13:07:20;2.75;;;0.40;;
85875;SDS011;76392;0.000;0.000;2024-03-02T13:09:48;3.50;;;1.08;;
85875;SDS011;76392;0.000;0.000;2024-03-02T13:12:15;2.80;;;0.47;;
85875;SDS011;76392;0.000;0.000;2024-03-02T13:14:42;2.97;;;0.47;;
85875;SDS011;76392;0.000;0.000;2024-03-02T13:17:08;3.00;;;0.73;;
85875;SDS011;76392;0.000;0.000;2024-03-02T13:19:34;2.70;;;0.82;;
85875;SDS011;76392;0.000;0.000;2024-03-02T13:22:00;3.30;;;0.70;;
85875;SDS011;76392;0.000;0.000;2024-03-02T13:24:27;2.63;;;0.57;;
85875;SDS011;76392;0.000;0.000;2024-03-02T13:26:56;3.28;;;1.15;;
85875;SDS011;76392;0.000;0.000;2024-03-02T13:29:23;2.38;;;0.35;;
85875;SDS011;76392;0.000;0.000;2024-03-02T13:31:49;3.03;;;1.27;;
85875;SDS011;76392;0.000;0.000;2024-03-02T13:34:15;2.97;;;0.40;;
85875;SDS011;76392;0.000;0.000;2024-03-02T13:36:41;4.75;;;0.80;;
85875;SDS011;76392;0.000;0.000;2024-03-02T13:39:06;2.70;;;0.93;;
85875;SDS011;76392;0.000;0.000;2024-03-02T13:41:34;4.30;;;1.00;;
85875;SDS011;76392;0.000;0.000;2024-03-02T13:43:59;3.38;;;0.40;;
85875;SDS011;76392;0.000;0.000;2024-03-02T13:46:26;3.38;;;0.88;;
85875;SDS011;76392;0.000;0.000;2024-03-02T13:48:52;3.95;;;0.65;;
85875;SDS011;76392;0.000;0.000;2024-03-02T13:51:18;2.83;;;0.60;;
85875;SDS011;76392;0.000;0.000;2024-03-02T13:53:43;2.22;;;0.45;;
85875;SDS011;76392;0.000;0.000;2024-03-02T13:56:09;3.22;;;1.45;;
85875;SDS011;76392;0.000;0.000;2024-03-02T13:58:34;4.57;;;0.77;;
85875;SDS011;76392;0.000;0.000;2024-03-02T14:01:00;2.47;;;0.75;;
85875;SDS011;76392;0.000;0.000;2024-03-02T14:03:26;2.58;;;0.50;;
85875;SDS011;76392;0.000;0.000;2024-03-02T14:05:53;2.50;;;0.30;;
85875;SDS011;76392;0.000;0.000;2024-03-02T14:08:18;2.65;;;0.40;;
85875;SDS011;76392;0.000;0.000;2024-03-02T14:10:44;3.72;;;0.55;;
85875;SDS011;76392;0.000;0.000;2024-03-02T14:13:10;2.53;;;0.50;;
85875;SDS011;76392;0.000;0.000;2024-03-02T14:15:35;3.22;;;0.60;;
85875;SDS011;76392;0.000;0.000;2024-03-02T14:18:04;3.33;;;0.52;;
85875;SDS011;76392;0.000;0.000;2024-03-02T14:20:30;2.60;;;0.40;;
85875;SDS011;76392;0.000;0.000;2024-03-02T14:22:55;1.15;;;0.25;;
85875;SDS011;76392;0.000;0.000;2024-03-02T14:25:21;3.20;;;0.60;;
85875;SDS011;76392;0.000;0.000;2024-03-02T14:27:47;2.08;;;0.40;;
85875;SDS011;76392;0.000;0.000;2024-03-02T14:30:12;3.65;;;0.38;;
85875;SDS011;76392;0.000;0.000;2024-03-02T14:32:38;3.83;;;0.52;;
85875;SDS011;76392;0.000;0.000;2024-03-02T14:35:04;2.30;;;0.45;;
85875;SDS011;76392;0.000;0.000;2024-03-02T14:37:30;3.42;;;1.08;;
85875;SDS011;76392;0.000;0.000;2024-03-02T14:39:55;1.75;;;0.30;;
85875;SDS011;76392;0.000;0.000;2024-03-02T14:42:21;3.58;;;0.50;;
85875;SDS011;76392;0.000;0.000;2024-03-02T14:44:47;3.78;;;0.50;;
85875;SDS011;76392;0.000;0.000;2024-03-02T14:47:13;2.58;;;0.43;;
85875;SDS011;76392;0.000;0.000;2024-03-02T14:49:38;1.70;;;0.40;;
85875;SDS011;76392;0.000;0.000;2024-03-02T14:52:05;2.50;;;0.50;;
85875;SDS011;76392;0.000;0.000;2024-03-02T14:54:31;1.55;;;0.40;;
85875;SDS011;76392;0.000;0.000;2024-03-02T14:56:57;1.83;;;0.55;;
85875;SDS011;76392;0.000;0.000;2024-03-02T14:59:22;3.15;;;0.47;;
85875;SDS011;76392;0.000;0.000;2024-03-02T15:01:48;3.42;;;0.43;;
85875;SDS011;76392;0.000;0.000;2024-03-02T15:04:14;2.05;;;0.40;;
85875;SDS011;76392;0.000;0.000;2024-03-02T15:06:41;2.17;;;0.40;;
85875;SDS011;76392;0.000;0.000;2024-03-02T15:09:07;2.55;;;0.50;;